sensor_id;sensor_type;location;lat;lon;timestamp;P1;durP1;ratioP1;P2;durP2;ratioP2
45488;SDS011;31236;55.026;61.042;2023-05-10T00:01:10;59.77;;;29.25;;
45488;SDS011;31236;55.026;61.042;2023-05-10T00:06:13;57.43;;;26.62;;
45488;SDS011;31236;55.026;61.042;2023-05-10T00:11:14;55.28;;;28.27;;
45488;SDS011;31236;55.026;61.042;2023-05-10T00:13:45;59.05;;;28.95;;
45488;SDS011;31236;55.026;61.042;2023-05-10T00:16:16;61.45;;;29.67;;
45488;SDS011;31236;55.026;61.042;2023-05-10T00:18:50;62.73;;;31.17;;
45488;SDS011;31236;55.026;61.042;2023-05-10T00:21:20;58.70;;;29.92;;
45488;SDS011;31236;55.026;61.042;2023-05-10T00:23:50;63.80;;;32.00;;
45488;SDS011;31236;55.026;61.042;2023-05-10T00:26:20;64.80;;;32.83;;
45488;SDS011;31236;55.026;61.042;2023-05-10T00:28:50;59.08;;;31.90;;
45488;SDS011;31236;55.026;61.042;2023-05-10T00:31:22;60.23;;;31.87;;
45488;SDS011;31236;55.026;61.042;2023-05-10T00:33:52;68.90;;;34.60;;
45488;SDS011;31236;55.026;61.042;2023-05-10T00:36:23;65.30;;;33.88;;
45488;SDS011;31236;55.026;61.042;2023-05-10T00:38:54;69.45;;;35.48;;
45488;SDS011;31236;55.026;61.042;2023-05-10T00:41:27;70.95;;;35.23;;
45488;SDS011;31236;55.026;61.042;2023-05-10T00:44:00;73.83;;;37.38;;
45488;SDS011;31236;55.026;61.042;2023-05-10T00:46:30;78.90;;;40.25;;
45488;SDS011;31236;55.026;61.042;2023-05-10T00:49:01;80.45;;;41.98;;
45488;SDS011;31236;55.026;61.042;2023-05-10T00:51:31;76.82;;;38.10;;
45488;SDS011;31236;55.026;61.042;2023-05-10T00:56:32;83.05;;;41.05;;
45488;SDS011;31236;55.026;61.042;2023-05-10T00:59:02;96.83;;;44.47;;
45488;SDS011;31236;55.026;61.042;2023-05-10T01:04:05;102.32;;;48.85;;
45488;SDS011;31236;55.026;61.042;2023-05-10T01:06:38;124.82;;;53.98;;
45488;SDS011;31236;55.026;61.042;2023-05-10T01:09:09;116.62;;;52.58;;
45488;SDS011;31236;55.026;61.042;2023-05-10T01:11:42;117.20;;;56.60;;
45488;SDS011;31236;55.026;61.042;2023-05-10T01:14:16;136.05;;;65.05;;
45488;SDS011;31236;55.026;61.042;2023-05-10T01:16:48;131.65;;;64.47;;
45488;SDS011;31236;55.026;61.042;2023-05-10T01:30:49;96.67;;;49.53;;
45488;SDS011;31236;55.026;61.042;2023-05-10T01:36:48;117.93;;;53.23;;
45488;SDS011;31236;55.026;61.042;2023-05-10T01:50:58;103.12;;;49.25;;
45488;SDS011;31236;55.026;61.042;2023-05-10T01:53:29;105.55;;;53.38;;
45488;SDS011;31236;55.026;61.042;2023-05-10T01:56:02;138.62;;;67.40;;
45488;SDS011;31236;55.026;61.042;2023-05-10T01:58:34;135.10;;;68.92;;
45488;SDS011;31236;55.026;61.042;2023-05-10T02:01:05;100.05;;;51.75;;
45488;SDS011;31236;55.026;61.042;2023-05-10T02:03:36;149.05;;;75.83;;
45488;SDS011;31236;55.026;61.042;2023-05-10T02:06:09;134.00;;;66.87;;
45488;SDS011;31236;55.026;61.042;2023-05-10T02:08:41;130.52;;;64.25;;
45488;SDS011;31236;55.026;61.042;2023-05-10T02:11:13;135.48;;;65.75;;
45488;SDS011;31236;55.026;61.042;2023-05-10T02:13:46;129.82;;;65.03;;
45488;SDS011;31236;55.026;61.042;2023-05-10T02:18:48;120.80;;;56.85;;
45488;SDS011;31236;55.026;61.042;2023-05-10T02:21:21;107.70;;;53.23;;
45488;SDS011;31236;55.026;61.042;2023-05-10T02:23:52;108.07;;;51.60;;
45488;SDS011;31236;55.026;61.042;2023-05-10T02:26:24;121.70;;;59.48;;
45488;SDS011;31236;55.026;61.042;2023-05-10T02:28:55;113.20;;;57.73;;
45488;SDS011;31236;55.026;61.042;2023-05-10T02:31:27;135.50;;;62.43;;
45488;SDS011;31236;55.026;61.042;2023-05-10T02:33:59;136.20;;;64.72;;
45488;SDS011;31236;55.026;61.042;2023-05-10T02:36:30;135.63;;;65.00;;
45488;SDS011;31236;55.026;61.042;2023-05-10T02:39:00;124.45;;;64.90;;
45488;SDS011;31236;55.026;61.042;2023-05-10T02:41:32;129.40;;;62.65;;
45488;SDS011;31236;55.026;61.042;2023-05-10T02:44:03;137.00;;;63.13;;
45488;SDS011;31236;55.026;61.042;2023-05-10T02:49:05;126.10;;;63.80;;
45488;SDS011;31236;55.026;61.042;2023-05-10T02:51:35;128.75;;;64.15;;
45488;SDS011;31236;55.026;61.042;2023-05-10T02:56:59;114.10;;;60.52;;
45488;SDS011;31236;55.026;61.042;2023-05-10T02:59:31;111.45;;;56.25;;
45488;SDS011;31236;55.026;61.042;2023-05-10T03:02:02;113.03;;;58.73;;
45488;SDS011;31236;55.026;61.042;2023-05-10T03:04:33;115.20;;;58.73;;
45488;SDS011;31236;55.026;61.042;2023-05-10T03:07:03;120.02;;;60.92;;
45488;SDS011;31236;55.026;61.042;2023-05-10T03:09:33;108.10;;;57.67;;
45488;SDS011;31236;55.026;61.042;2023-05-10T03:12:05;117.87;;;64.05;;
45488;SDS011;31236;55.026;61.042;2023-05-10T03:26:22;102.07;;;46.05;;
45488;SDS011;31236;55.026;61.042;2023-05-10T03:28:53;96.32;;;50.67;;
45488;SDS011;31236;55.026;61.042;2023-05-10T03:31:25;81.57;;;46.50;;
45488;SDS011;31236;55.026;61.042;2023-05-10T03:33:55;86.60;;;47.17;;
45488;SDS011;31236;55.026;61.042;2023-05-10T03:36:25;85.25;;;46.95;;
45488;SDS011;31236;55.026;61.042;2023-05-10T03:38:55;85.40;;;46.13;;
45488;SDS011;31236;55.026;61.042;2023-05-10T03:41:26;84.58;;;44.03;;
45488;SDS011;31236;55.026;61.042;2023-05-10T03:43:56;71.67;;;37.30;;
45488;SDS011;31236;55.026;61.042;2023-05-10T03:46:26;68.40;;;35.33;;
45488;SDS011;31236;55.026;61.042;2023-05-10T03:48:56;68.15;;;34.75;;
45488;SDS011;31236;55.026;61.042;2023-05-10T03:51:26;54.58;;;32.17;;
45488;SDS011;31236;55.026;61.042;2023-05-10T03:53:57;60.85;;;34.43;;
45488;SDS011;31236;55.026;61.042;2023-05-10T03:56:29;54.50;;;30.95;;
45488;SDS011;31236;55.026;61.042;2023-05-10T03:58:59;57.67;;;29.15;;
45488;SDS011;31236;55.026;61.042;2023-05-10T04:01:30;52.57;;;28.60;;
45488;SDS011;31236;55.026;61.042;2023-05-10T04:04:00;50.55;;;27.30;;
45488;SDS011;31236;55.026;61.042;2023-05-10T04:06:30;42.58;;;26.02;;
45488;SDS011;31236;55.026;61.042;2023-05-10T04:09:00;45.48;;;25.43;;
45488;SDS011;31236;55.026;61.042;2023-05-10T04:11:30;47.93;;;25.12;;
45488;SDS011;31236;55.026;61.042;2023-05-10T04:14:00;40.20;;;22.37;;
45488;SDS011;31236;55.026;61.042;2023-05-10T04:16:34;40.58;;;22.10;;
45488;SDS011;31236;55.026;61.042;2023-05-10T04:19:04;36.50;;;20.08;;
45488;SDS011;31236;55.026;61.042;2023-05-10T04:21:34;35.43;;;19.60;;
45488;SDS011;31236;55.026;61.042;2023-05-10T04:24:05;38.45;;;20.32;;
45488;SDS011;31236;55.026;61.042;2023-05-10T04:26:35;37.30;;;20.25;;
45488;SDS011;31236;55.026;61.042;2023-05-10T04:29:06;34.65;;;19.50;;
45488;SDS011;31236;55.026;61.042;2023-05-10T04:31:36;37.30;;;20.05;;
45488;SDS011;31236;55.026;61.042;2023-05-10T04:34:06;36.90;;;19.50;;
45488;SDS011;31236;55.026;61.042;2023-05-10T04:36:36;34.03;;;19.35;;
45488;SDS011;31236;55.026;61.042;2023-05-10T04:39:06;31.20;;;18.12;;
45488;SDS011;31236;55.026;61.042;2023-05-10T04:41:37;35.43;;;17.98;;
45488;SDS011;31236;55.026;61.042;2023-05-10T04:44:07;40.15;;;20.12;;
45488;SDS011;31236;55.026;61.042;2023-05-10T04:46:37;30.72;;;17.48;;
45488;SDS011;31236;55.026;61.042;2023-05-10T04:49:07;33.20;;;17.87;;
45488;SDS011;31236;55.026;61.042;2023-05-10T04:51:41;32.45;;;16.10;;
45488;SDS011;31236;55.026;61.042;2023-05-10T04:54:10;21.87;;;11.43;;
45488;SDS011;31236;55.026;61.042;2023-05-10T04:56:40;19.23;;;10.23;;
45488;SDS011;31236;55.026;61.042;2023-05-10T04:59:10;19.17;;;8.83;;
45488;SDS011;31236;55.026;61.042;2023-05-10T05:01:40;18.60;;;9.25;;
45488;SDS011;31236;55.026;61.042;2023-05-10T05:04:09;16.37;;;9.00;;
45488;SDS011;31236;55.026;61.042;2023-05-10T05:06:40;22.37;;;10.35;;
45488;SDS011;31236;55.026;61.042;2023-05-10T05:09:10;18.02;;;10.23;;
45488;SDS011;31236;55.026;61.042;2023-05-10T05:11:40;21.23;;;10.63;;
45488;SDS011;31236;55.026;61.042;2023-05-10T05:14:10;17.70;;;9.15;;
45488;SDS011;31236;55.026;61.042;2023-05-10T05:16:42;22.73;;;10.93;;
45488;SDS011;31236;55.026;61.042;2023-05-10T05:19:12;20.25;;;10.60;;
45488;SDS011;31236;55.026;61.042;2023-05-10T05:21:41;20.62;;;11.25;;
45488;SDS011;31236;55.026;61.042;2023-05-10T05:24:11;24.02;;;11.57;;
45488;SDS011;31236;55.026;61.042;2023-05-10T05:26:41;29.90;;;10.88;;
45488;SDS011;31236;55.026;61.042;2023-05-10T05:29:11;19.42;;;10.58;;
45488;SDS011;31236;55.026;61.042;2023-05-10T05:31:40;22.90;;;11.25;;
45488;SDS011;31236;55.026;61.042;2023-05-10T05:34:10;23.50;;;11.48;;
45488;SDS011;31236;55.026;61.042;2023-05-10T05:36:40;23.92;;;12.25;;
45488;SDS011;31236;55.026;61.042;2023-05-10T05:39:10;25.25;;;11.55;;
45488;SDS011;31236;55.026;61.042;2023-05-10T05:41:40;30.57;;;12.60;;
45488;SDS011;31236;55.026;61.042;2023-05-10T05:44:10;28.38;;;13.35;;
45488;SDS011;31236;55.026;61.042;2023-05-10T05:46:40;21.95;;;12.15;;
45488;SDS011;31236;55.026;61.042;2023-05-10T05:49:09;20.40;;;11.83;;
45488;SDS011;31236;55.026;61.042;2023-05-10T05:51:39;24.37;;;12.82;;
45488;SDS011;31236;55.026;61.042;2023-05-10T05:54:09;25.17;;;12.20;;
45488;SDS011;31236;55.026;61.042;2023-05-10T05:56:39;23.32;;;12.33;;
45488;SDS011;31236;55.026;61.042;2023-05-10T05:59:10;22.22;;;12.07;;
45488;SDS011;31236;55.026;61.042;2023-05-10T06:01:40;26.90;;;12.98;;
45488;SDS011;31236;55.026;61.042;2023-05-10T06:04:10;22.60;;;12.88;;
45488;SDS011;31236;55.026;61.042;2023-05-10T06:06:40;22.65;;;11.80;;
45488;SDS011;31236;55.026;61.042;2023-05-10T06:09:10;22.32;;;12.13;;
45488;SDS011;31236;55.026;61.042;2023-05-10T06:11:40;23.65;;;12.25;;
45488;SDS011;31236;55.026;61.042;2023-05-10T06:14:10;22.37;;;12.45;;
45488;SDS011;31236;55.026;61.042;2023-05-10T06:16:39;25.55;;;12.00;;
45488;SDS011;31236;55.026;61.042;2023-05-10T06:19:09;26.02;;;12.45;;
45488;SDS011;31236;55.026;61.042;2023-05-10T06:21:39;29.67;;;12.82;;
45488;SDS011;31236;55.026;61.042;2023-05-10T06:24:09;20.75;;;11.20;;
45488;SDS011;31236;55.026;61.042;2023-05-10T06:26:38;20.68;;;11.28;;
45488;SDS011;31236;55.026;61.042;2023-05-10T06:29:08;17.67;;;10.30;;
45488;SDS011;31236;55.026;61.042;2023-05-10T06:31:38;19.40;;;11.30;;
45488;SDS011;31236;55.026;61.042;2023-05-10T06:34:08;19.92;;;12.03;;
45488;SDS011;31236;55.026;61.042;2023-05-10T06:36:40;20.82;;;11.60;;
45488;SDS011;31236;55.026;61.042;2023-05-10T06:39:09;16.57;;;10.00;;
45488;SDS011;31236;55.026;61.042;2023-05-10T06:41:39;19.23;;;10.08;;
45488;SDS011;31236;55.026;61.042;2023-05-10T06:44:09;23.75;;;10.15;;
45488;SDS011;31236;55.026;61.042;2023-05-10T06:46:39;24.27;;;12.50;;
45488;SDS011;31236;55.026;61.042;2023-05-10T06:49:09;16.65;;;9.08;;
45488;SDS011;31236;55.026;61.042;2023-05-10T06:51:39;16.37;;;9.10;;
45488;SDS011;31236;55.026;61.042;2023-05-10T06:54:09;16.07;;;9.05;;
45488;SDS011;31236;55.026;61.042;2023-05-10T06:56:38;17.80;;;8.70;;
45488;SDS011;31236;55.026;61.042;2023-05-10T06:59:09;17.05;;;8.28;;
45488;SDS011;31236;55.026;61.042;2023-05-10T07:01:39;35.50;;;8.65;;
45488;SDS011;31236;55.026;61.042;2023-05-10T07:04:09;17.85;;;8.60;;
45488;SDS011;31236;55.026;61.042;2023-05-10T07:06:39;12.82;;;7.75;;
45488;SDS011;31236;55.026;61.042;2023-05-10T07:09:09;15.72;;;7.92;;
45488;SDS011;31236;55.026;61.042;2023-05-10T07:11:39;13.05;;;7.62;;
45488;SDS011;31236;55.026;61.042;2023-05-10T07:14:09;19.37;;;8.13;;
45488;SDS011;31236;55.026;61.042;2023-05-10T07:16:39;16.77;;;8.10;;
45488;SDS011;31236;55.026;61.042;2023-05-10T07:19:09;19.50;;;7.92;;
45488;SDS011;31236;55.026;61.042;2023-05-10T07:21:38;16.90;;;7.03;;
45488;SDS011;31236;55.026;61.042;2023-05-10T07:24:09;15.45;;;7.47;;
45488;SDS011;31236;55.026;61.042;2023-05-10T07:26:39;14.20;;;7.35;;
45488;SDS011;31236;55.026;61.042;2023-05-10T07:29:09;16.12;;;7.85;;
45488;SDS011;31236;55.026;61.042;2023-05-10T07:31:39;19.20;;;9.03;;
45488;SDS011;31236;55.026;61.042;2023-05-10T07:34:08;25.08;;;9.38;;
45488;SDS011;31236;55.026;61.042;2023-05-10T07:36:38;13.65;;;6.70;;
45488;SDS011;31236;55.026;61.042;2023-05-10T07:39:08;12.88;;;6.45;;
45488;SDS011;31236;55.026;61.042;2023-05-10T07:41:38;15.53;;;7.50;;
45488;SDS011;31236;55.026;61.042;2023-05-10T07:44:08;14.25;;;6.37;;
45488;SDS011;31236;55.026;61.042;2023-05-10T07:46:38;19.98;;;6.42;;
45488;SDS011;31236;55.026;61.042;2023-05-10T07:49:08;14.13;;;6.85;;
45488;SDS011;31236;55.026;61.042;2023-05-10T07:51:37;15.70;;;6.33;;
45488;SDS011;31236;55.026;61.042;2023-05-10T07:54:08;13.88;;;7.25;;
45488;SDS011;31236;55.026;61.042;2023-05-10T07:56:38;27.10;;;11.35;;
45488;SDS011;31236;55.026;61.042;2023-05-10T07:59:10;22.60;;;10.73;;
45488;SDS011;31236;55.026;61.042;2023-05-10T08:02:00;14.65;;;8.05;;
45488;SDS011;31236;55.026;61.042;2023-05-10T08:04:30;18.65;;;8.53;;
45488;SDS011;31236;55.026;61.042;2023-05-10T08:07:00;16.70;;;7.42;;
45488;SDS011;31236;55.026;61.042;2023-05-10T08:09:30;17.00;;;7.95;;
45488;SDS011;31236;55.026;61.042;2023-05-10T08:11:59;19.52;;;8.60;;
45488;SDS011;31236;55.026;61.042;2023-05-10T08:14:29;14.53;;;7.62;;
45488;SDS011;31236;55.026;61.042;2023-05-10T08:16:59;14.10;;;7.60;;
45488;SDS011;31236;55.026;61.042;2023-05-10T08:19:29;13.53;;;8.65;;
45488;SDS011;31236;55.026;61.042;2023-05-10T08:22:00;30.25;;;17.50;;
45488;SDS011;31236;55.026;61.042;2023-05-10T08:24:30;20.90;;;9.78;;
45488;SDS011;31236;55.026;61.042;2023-05-10T08:27:01;15.03;;;8.18;;
45488;SDS011;31236;55.026;61.042;2023-05-10T08:29:31;19.17;;;8.65;;
45488;SDS011;31236;55.026;61.042;2023-05-10T08:32:00;18.52;;;9.58;;
45488;SDS011;31236;55.026;61.042;2023-05-10T08:34:31;16.77;;;10.00;;
45488;SDS011;31236;55.026;61.042;2023-05-10T08:37:01;25.80;;;11.83;;
45488;SDS011;31236;55.026;61.042;2023-05-10T08:39:33;17.57;;;8.65;;
45488;SDS011;31236;55.026;61.042;2023-05-10T08:42:21;17.48;;;9.95;;
45488;SDS011;31236;55.026;61.042;2023-05-10T08:44:53;24.07;;;11.57;;
45488;SDS011;31236;55.026;61.042;2023-05-10T08:47:24;18.05;;;8.98;;
45488;SDS011;31236;55.026;61.042;2023-05-10T08:49:54;14.13;;;7.80;;
45488;SDS011;31236;55.026;61.042;2023-05-10T08:52:26;19.90;;;9.90;;
45488;SDS011;31236;55.026;61.042;2023-05-10T08:54:56;20.17;;;9.18;;
45488;SDS011;31236;55.026;61.042;2023-05-10T08:57:26;22.05;;;8.65;;
45488;SDS011;31236;55.026;61.042;2023-05-10T08:59:56;16.20;;;9.00;;
45488;SDS011;31236;55.026;61.042;2023-05-10T09:02:26;16.37;;;8.90;;
45488;SDS011;31236;55.026;61.042;2023-05-10T09:04:56;26.80;;;10.75;;
45488;SDS011;31236;55.026;61.042;2023-05-10T09:07:26;20.85;;;10.48;;
45488;SDS011;31236;55.026;61.042;2023-05-10T09:09:56;22.93;;;11.30;;
45488;SDS011;31236;55.026;61.042;2023-05-10T09:12:27;18.90;;;10.82;;
45488;SDS011;31236;55.026;61.042;2023-05-10T09:14:57;18.77;;;10.05;;
45488;SDS011;31236;55.026;61.042;2023-05-10T09:17:28;23.10;;;11.10;;
45488;SDS011;31236;55.026;61.042;2023-05-10T09:22:48;22.70;;;10.88;;
45488;SDS011;31236;55.026;61.042;2023-05-10T09:25:18;18.77;;;10.05;;
45488;SDS011;31236;55.026;61.042;2023-05-10T09:27:48;19.12;;;10.10;;
45488;SDS011;31236;55.026;61.042;2023-05-10T09:33:09;17.42;;;10.80;;
45488;SDS011;31236;55.026;61.042;2023-05-10T09:35:38;27.15;;;11.48;;
45488;SDS011;31236;55.026;61.042;2023-05-10T09:38:09;22.80;;;10.82;;
45488;SDS011;31236;55.026;61.042;2023-05-10T09:40:38;21.42;;;10.75;;
45488;SDS011;31236;55.026;61.042;2023-05-10T09:43:08;24.30;;;12.70;;
45488;SDS011;31236;55.026;61.042;2023-05-10T09:45:38;26.90;;;10.90;;
45488;SDS011;31236;55.026;61.042;2023-05-10T09:48:10;22.17;;;10.78;;
45488;SDS011;31236;55.026;61.042;2023-05-10T09:50:40;18.75;;;10.82;;
45488;SDS011;31236;55.026;61.042;2023-05-10T09:53:11;19.73;;;11.43;;
45488;SDS011;31236;55.026;61.042;2023-05-10T09:58:15;20.03;;;10.87;;
45488;SDS011;31236;55.026;61.042;2023-05-10T10:00:45;17.70;;;11.83;;
45488;SDS011;31236;55.026;61.042;2023-05-10T10:05:48;22.48;;;10.20;;
45488;SDS011;31236;55.026;61.042;2023-05-10T10:08:19;22.87;;;12.30;;
45488;SDS011;31236;55.026;61.042;2023-05-10T10:10:49;21.20;;;11.48;;
45488;SDS011;31236;55.026;61.042;2023-05-10T10:13:19;19.57;;;10.25;;
45488;SDS011;31236;55.026;61.042;2023-05-10T10:15:49;17.92;;;10.10;;
45488;SDS011;31236;55.026;61.042;2023-05-10T10:18:20;18.42;;;9.60;;
45488;SDS011;31236;55.026;61.042;2023-05-10T10:20:51;18.07;;;10.00;;
45488;SDS011;31236;55.026;61.042;2023-05-10T10:23:22;20.20;;;10.48;;
45488;SDS011;31236;55.026;61.042;2023-05-10T10:25:53;20.40;;;10.20;;
45488;SDS011;31236;55.026;61.042;2023-05-10T10:28:26;18.85;;;9.13;;
45488;SDS011;31236;55.026;61.042;2023-05-10T10:37:14;22.32;;;11.22;;
45488;SDS011;31236;55.026;61.042;2023-05-10T10:39:43;27.73;;;12.30;;
45488;SDS011;31236;55.026;61.042;2023-05-10T10:42:14;15.55;;;8.28;;
45488;SDS011;31236;55.026;61.042;2023-05-10T10:50:05;13.83;;;8.95;;
45488;SDS011;31236;55.026;61.042;2023-05-10T10:52:55;20.15;;;10.98;;
45488;SDS011;31236;55.026;61.042;2023-05-10T10:55:28;21.02;;;10.55;;
45488;SDS011;31236;55.026;61.042;2023-05-10T10:57:58;14.68;;;8.43;;
45488;SDS011;31236;55.026;61.042;2023-05-10T11:05:53;18.82;;;11.12;;
45488;SDS011;31236;55.026;61.042;2023-05-10T11:08:27;21.85;;;10.75;;
45488;SDS011;31236;55.026;61.042;2023-05-10T11:13:51;17.55;;;9.40;;
45488;SDS011;31236;55.026;61.042;2023-05-10T11:16:22;16.67;;;8.90;;
45488;SDS011;31236;55.026;61.042;2023-05-10T11:21:45;19.57;;;8.90;;
45488;SDS011;31236;55.026;61.042;2023-05-10T11:24:34;15.38;;;8.78;;
45488;SDS011;31236;55.026;61.042;2023-05-10T11:27:05;20.37;;;8.00;;
45488;SDS011;31236;55.026;61.042;2023-05-10T11:29:35;17.00;;;8.28;;
45488;SDS011;31236;55.026;61.042;2023-05-10T11:32:05;14.30;;;7.47;;
45488;SDS011;31236;55.026;61.042;2023-05-10T11:34:35;14.43;;;7.75;;
45488;SDS011;31236;55.026;61.042;2023-05-10T11:37:05;13.62;;;7.83;;
45488;SDS011;31236;55.026;61.042;2023-05-10T11:39:35;11.57;;;6.60;;
45488;SDS011;31236;55.026;61.042;2023-05-10T11:42:05;17.20;;;8.00;;
45488;SDS011;31236;55.026;61.042;2023-05-10T11:44:36;14.03;;;7.58;;
45488;SDS011;31236;55.026;61.042;2023-05-10T11:47:08;12.65;;;7.20;;
45488;SDS011;31236;55.026;61.042;2023-05-10T11:49:42;14.40;;;7.08;;
45488;SDS011;31236;55.026;61.042;2023-05-10T11:52:35;13.68;;;7.33;;
45488;SDS011;31236;55.026;61.042;2023-05-10T11:55:22;17.27;;;7.83;;
45488;SDS011;31236;55.026;61.042;2023-05-10T11:57:53;14.05;;;7.30;;
45488;SDS011;31236;55.026;61.042;2023-05-10T12:00:23;15.30;;;7.78;;
45488;SDS011;31236;55.026;61.042;2023-05-10T12:02:53;15.35;;;7.42;;
45488;SDS011;31236;55.026;61.042;2023-05-10T12:05:25;18.27;;;8.23;;
45488;SDS011;31236;55.026;61.042;2023-05-10T12:08:10;17.05;;;8.05;;
45488;SDS011;31236;55.026;61.042;2023-05-10T12:10:46;13.30;;;7.25;;
45488;SDS011;31236;55.026;61.042;2023-05-10T12:13:17;14.55;;;7.55;;
45488;SDS011;31236;55.026;61.042;2023-05-10T12:15:48;15.60;;;8.25;;
45488;SDS011;31236;55.026;61.042;2023-05-10T12:18:23;13.68;;;7.78;;
45488;SDS011;31236;55.026;61.042;2023-05-10T12:23:40;13.45;;;7.22;;
45488;SDS011;31236;55.026;61.042;2023-05-10T12:26:10;14.75;;;7.95;;
45488;SDS011;31236;55.026;61.042;2023-05-10T12:28:40;11.97;;;7.05;;
45488;SDS011;31236;55.026;61.042;2023-05-10T12:31:10;12.45;;;7.25;;
45488;SDS011;31236;55.026;61.042;2023-05-10T12:33:42;13.88;;;7.00;;
45488;SDS011;31236;55.026;61.042;2023-05-10T12:36:15;13.00;;;7.03;;
45488;SDS011;31236;55.026;61.042;2023-05-10T12:38:47;15.98;;;7.87;;
45488;SDS011;31236;55.026;61.042;2023-05-10T12:41:18;14.98;;;7.42;;
45488;SDS011;31236;55.026;61.042;2023-05-10T12:43:48;13.05;;;7.55;;
45488;SDS011;31236;55.026;61.042;2023-05-10T12:46:20;13.68;;;7.60;;
45488;SDS011;31236;55.026;61.042;2023-05-10T12:48:51;21.73;;;10.63;;
45488;SDS011;31236;55.026;61.042;2023-05-10T12:51:22;20.27;;;10.50;;
45488;SDS011;31236;55.026;61.042;2023-05-10T12:53:54;25.25;;;10.10;;
45488;SDS011;31236;55.026;61.042;2023-05-10T12:56:24;20.55;;;9.53;;
45488;SDS011;31236;55.026;61.042;2023-05-10T12:58:54;18.48;;;9.85;;
45488;SDS011;31236;55.026;61.042;2023-05-10T13:01:24;22.00;;;9.50;;
45488;SDS011;31236;55.026;61.042;2023-05-10T13:03:54;17.73;;;9.38;;
45488;SDS011;31236;55.026;61.042;2023-05-10T13:06:24;17.07;;;9.18;;
45488;SDS011;31236;55.026;61.042;2023-05-10T13:08:53;22.90;;;8.88;;
45488;SDS011;31236;55.026;61.042;2023-05-10T13:11:24;19.77;;;9.23;;
45488;SDS011;31236;55.026;61.042;2023-05-10T13:13:54;17.73;;;9.65;;
45488;SDS011;31236;55.026;61.042;2023-05-10T13:16:25;16.10;;;9.33;;
45488;SDS011;31236;55.026;61.042;2023-05-10T13:18:55;18.30;;;9.73;;
45488;SDS011;31236;55.026;61.042;2023-05-10T13:21:25;20.02;;;8.98;;
45488;SDS011;31236;55.026;61.042;2023-05-10T13:23:55;18.00;;;8.83;;
45488;SDS011;31236;55.026;61.042;2023-05-10T13:26:25;14.78;;;8.15;;
45488;SDS011;31236;55.026;61.042;2023-05-10T13:28:54;18.15;;;8.55;;
45488;SDS011;31236;55.026;61.042;2023-05-10T13:31:24;16.17;;;8.30;;
45488;SDS011;31236;55.026;61.042;2023-05-10T13:33:55;22.82;;;8.88;;
45488;SDS011;31236;55.026;61.042;2023-05-10T13:36:25;20.97;;;9.58;;
45488;SDS011;31236;55.026;61.042;2023-05-10T13:38:54;16.07;;;7.85;;
45488;SDS011;31236;55.026;61.042;2023-05-10T13:41:24;19.32;;;9.48;;
45488;SDS011;31236;55.026;61.042;2023-05-10T13:43:54;23.50;;;9.08;;
45488;SDS011;31236;55.026;61.042;2023-05-10T13:46:24;19.10;;;9.35;;
45488;SDS011;31236;55.026;61.042;2023-05-10T13:48:53;22.30;;;9.90;;
45488;SDS011;31236;55.026;61.042;2023-05-10T13:51:23;22.27;;;9.45;;
45488;SDS011;31236;55.026;61.042;2023-05-10T13:53:53;18.57;;;8.75;;
45488;SDS011;31236;55.026;61.042;2023-05-10T13:56:23;18.77;;;9.23;;
45488;SDS011;31236;55.026;61.042;2023-05-10T13:58:53;19.07;;;8.38;;
45488;SDS011;31236;55.026;61.042;2023-05-10T14:01:23;19.37;;;8.95;;
45488;SDS011;31236;55.026;61.042;2023-05-10T14:03:53;17.12;;;8.65;;
45488;SDS011;31236;55.026;61.042;2023-05-10T14:06:23;18.25;;;9.10;;
45488;SDS011;31236;55.026;61.042;2023-05-10T14:08:53;17.27;;;8.43;;
45488;SDS011;31236;55.026;61.042;2023-05-10T14:11:23;15.88;;;9.70;;
45488;SDS011;31236;55.026;61.042;2023-05-10T14:13:53;28.65;;;14.40;;
45488;SDS011;31236;55.026;61.042;2023-05-10T14:16:23;20.12;;;9.68;;
45488;SDS011;31236;55.026;61.042;2023-05-10T14:18:53;18.67;;;9.58;;
45488;SDS011;31236;55.026;61.042;2023-05-10T14:21:23;21.25;;;9.65;;
45488;SDS011;31236;55.026;61.042;2023-05-10T14:23:54;21.85;;;9.75;;
45488;SDS011;31236;55.026;61.042;2023-05-10T14:26:24;19.30;;;8.78;;
45488;SDS011;31236;55.026;61.042;2023-05-10T14:28:54;20.12;;;8.58;;
45488;SDS011;31236;55.026;61.042;2023-05-10T14:31:25;15.15;;;7.55;;
45488;SDS011;31236;55.026;61.042;2023-05-10T14:33:56;19.67;;;9.45;;
45488;SDS011;31236;55.026;61.042;2023-05-10T14:36:26;18.23;;;8.88;;
45488;SDS011;31236;55.026;61.042;2023-05-10T14:38:55;16.52;;;8.03;;
45488;SDS011;31236;55.026;61.042;2023-05-10T14:41:25;18.40;;;8.18;;
45488;SDS011;31236;55.026;61.042;2023-05-10T14:43:56;25.00;;;7.87;;
45488;SDS011;31236;55.026;61.042;2023-05-10T14:46:26;17.42;;;7.83;;
45488;SDS011;31236;55.026;61.042;2023-05-10T14:48:56;15.30;;;8.05;;
45488;SDS011;31236;55.026;61.042;2023-05-10T14:51:25;15.30;;;7.53;;
45488;SDS011;31236;55.026;61.042;2023-05-10T14:53:55;18.20;;;8.78;;
45488;SDS011;31236;55.026;61.042;2023-05-10T14:56:25;14.03;;;7.47;;
45488;SDS011;31236;55.026;61.042;2023-05-10T14:58:55;13.55;;;7.80;;
45488;SDS011;31236;55.026;61.042;2023-05-10T15:01:26;17.12;;;8.23;;
45488;SDS011;31236;55.026;61.042;2023-05-10T15:03:57;39.85;;;21.23;;
45488;SDS011;31236;55.026;61.042;2023-05-10T15:09:17;43.30;;;25.05;;
45488;SDS011;31236;55.026;61.042;2023-05-10T15:11:46;53.08;;;32.93;;
45488;SDS011;31236;55.026;61.042;2023-05-10T15:14:16;38.98;;;25.50;;
45488;SDS011;31236;55.026;61.042;2023-05-10T15:16:46;38.70;;;22.95;;
45488;SDS011;31236;55.026;61.042;2023-05-10T15:19:16;33.85;;;20.08;;
45488;SDS011;31236;55.026;61.042;2023-05-10T15:21:46;25.15;;;14.70;;
45488;SDS011;31236;55.026;61.042;2023-05-10T15:24:16;20.60;;;12.85;;
45488;SDS011;31236;55.026;61.042;2023-05-10T15:26:45;24.60;;;12.20;;
45488;SDS011;31236;55.026;61.042;2023-05-10T15:29:15;33.78;;;18.50;;
45488;SDS011;31236;55.026;61.042;2023-05-10T15:34:35;93.72;;;51.40;;
45488;SDS011;31236;55.026;61.042;2023-05-10T15:37:05;58.08;;;33.38;;
45488;SDS011;31236;55.026;61.042;2023-05-10T15:39:35;44.73;;;20.65;;
45488;SDS011;31236;55.026;61.042;2023-05-10T15:58:28;38.42;;;21.52;;
45488;SDS011;31236;55.026;61.042;2023-05-10T16:00:58;47.62;;;19.60;;
45488;SDS011;31236;55.026;61.042;2023-05-10T16:03:29;34.50;;;17.07;;
45488;SDS011;31236;55.026;61.042;2023-05-10T16:05:59;38.33;;;15.63;;
45488;SDS011;31236;55.026;61.042;2023-05-10T16:08:29;36.45;;;15.48;;
45488;SDS011;31236;55.026;61.042;2023-05-10T16:10:59;45.78;;;15.58;;
45488;SDS011;31236;55.026;61.042;2023-05-10T16:13:29;34.70;;;13.15;;
45488;SDS011;31236;55.026;61.042;2023-05-10T16:15:59;36.35;;;12.85;;
45488;SDS011;31236;55.026;61.042;2023-05-10T16:18:29;31.95;;;13.88;;
45488;SDS011;31236;55.026;61.042;2023-05-10T16:21:00;39.00;;;16.82;;
45488;SDS011;31236;55.026;61.042;2023-05-10T16:23:30;40.28;;;16.00;;
45488;SDS011;31236;55.026;61.042;2023-05-10T16:26:00;43.38;;;13.55;;
45488;SDS011;31236;55.026;61.042;2023-05-10T16:31:20;93.35;;;45.85;;